sensor_id;sensor_type;location;lat;lon;timestamp;temperature;humidity
17992;DHT22;9121;50.926;5.340;2022-11-21T00:00:22;7.50;99.90
17992;DHT22;9121;50.926;5.340;2022-11-21T00:02:49;7.50;99.90
17992;DHT22;9121;50.926;5.340;2022-11-21T00:05:16;7.40;99.90
17992;DHT22;9121;50.926;5.340;2022-11-21T00:07:45;7.40;99.90
17992;DHT22;9121;50.926;5.340;2022-11-21T00:10:12;7.40;99.90
17992;DHT22;9121;50.926;5.340;2022-11-21T00:12:39;7.40;99.90
17992;DHT22;9121;50.926;5.340;2022-11-21T00:15:06;7.40;99.90
17992;DHT22;9121;50.926;5.340;2022-11-21T00:17:33;7.40;99.90
17992;DHT22;9121;50.926;5.340;2022-11-21T00:20:00;7.30;99.90
17992;DHT22;9121;50.926;5.340;2022-11-21T00:22:27;7.40;99.90
17992;DHT22;9121;50.926;5.340;2022-11-21T00:24:55;7.40;99.90
17992;DHT22;9121;50.926;5.340;2022-11-21T00:27:22;7.50;99.90
17992;DHT22;9121;50.926;5.340;2022-11-21T00:29:49;7.50;99.90
17992;DHT22;9121;50.926;5.340;2022-11-21T00:32:16;7.40;99.90
17992;DHT22;9121;50.926;5.340;2022-11-21T00:34:43;7.40;99.90
17992;DHT22;9121;50.926;5.340;2022-11-21T00:37:10;7.50;99.90
17992;DHT22;9121;50.926;5.340;2022-11-21T00:39:37;7.40;99.90
17992;DHT22;9121;50.926;5.340;2022-11-21T00:42:05;7.50;99.90
17992;DHT22;9121;50.926;5.340;2022-11-21T00:44:32;7.50;99.90
17992;DHT22;9121;50.926;5.340;2022-11-21T00:46:59;7.50;99.90
17992;DHT22;9121;50.926;5.340;2022-11-21T00:49:26;7.50;99.90
17992;DHT22;9121;50.926;5.340;2022-11-21T00:51:53;7.50;99.90
17992;DHT22;9121;50.926;5.340;2022-11-21T00:54:20;7.50;99.90
17992;DHT22;9121;50.926;5.340;2022-11-21T00:56:47;7.50;99.90
17992;DHT22;9121;50.926;5.340;2022-11-21T00:59:15;7.40;99.90
17992;DHT22;9121;50.926;5.340;2022-11-21T01:01:42;7.40;99.90
17992;DHT22;9121;50.926;5.340;2022-11-21T01:04:09;7.30;99.90
17992;DHT22;9121;50.926;5.340;2022-11-21T01:06:36;7.30;99.90
17992;DHT22;9121;50.926;5.340;2022-11-21T01:09:04;7.30;99.90
17992;DHT22;9121;50.926;5.340;2022-11-21T01:11:31;7.30;99.90
17992;DHT22;9121;50.926;5.340;2022-11-21T01:13:58;7.30;99.90
17992;DHT22;9121;50.926;5.340;2022-11-21T01:16:29;7.30;99.90
17992;DHT22;9121;50.926;5.340;2022-11-21T01:18:56;7.30;99.90
17992;DHT22;9121;50.926;5.340;2022-11-21T01:21:24;7.20;99.90
17992;DHT22;9121;50.926;5.340;2022-11-21T01:23:52;7.20;99.90
17992;DHT22;9121;50.926;5.340;2022-11-21T01:26:21;7.20;99.90
17992;DHT22;9121;50.926;5.340;2022-11-21T01:28:48;7.20;99.90
17992;DHT22;9121;50.926;5.340;2022-11-21T01:31:18;7.20;99.90
17992;DHT22;9121;50.926;5.340;2022-11-21T01:33:47;7.20;99.90
17992;DHT22;9121;50.926;5.340;2022-11-21T01:36:15;7.10;99.90
17992;DHT22;9121;50.926;5.340;2022-11-21T01:38:44;7.10;99.90
17992;DHT22;9121;50.926;5.340;2022-11-21T01:41:13;7.10;99.90
17992;DHT22;9121;50.926;5.340;2022-11-21T01:43:40;7.10;99.90
17992;DHT22;9121;50.926;5.340;2022-11-21T01:46:11;7.10;99.90
17992;DHT22;9121;50.926;5.340;2022-11-21T01:48:46;7.20;99.90
17992;DHT22;9121;50.926;5.340;2022-11-21T01:51:20;7.20;99.90
17992;DHT22;9121;50.926;5.340;2022-11-21T01:53:51;7.20;99.90
17992;DHT22;9121;50.926;5.340;2022-11-21T01:56:18;7.20;99.90
17992;DHT22;9121;50.926;5.340;2022-11-21T01:58:47;7.30;99.90
17992;DHT22;9121;50.926;5.340;2022-11-21T02:01:15;7.40;99.90
17992;DHT22;9121;50.926;5.340;2022-11-21T02:03:45;7.40;99.90
17992;DHT22;9121;50.926;5.340;2022-11-21T02:06:13;7.30;99.90
17992;DHT22;9121;50.926;5.340;2022-11-21T02:08:40;7.20;99.90
17992;DHT22;9121;50.926;5.340;2022-11-21T02:11:13;7.10;99.90
17992;DHT22;9121;50.926;5.340;2022-11-21T02:13:41;6.90;99.90
17992;DHT22;9121;50.926;5.340;2022-11-21T02:16:08;6.90;99.90
17992;DHT22;9121;50.926;5.340;2022-11-21T02:18:35;6.90;99.90
17992;DHT22;9121;50.926;5.340;2022-11-21T02:21:11;6.90;99.90
17992;DHT22;9121;50.926;5.340;2022-11-21T02:23:43;7.00;99.90
17992;DHT22;9121;50.926;5.340;2022-11-21T02:26:12;7.10;99.90
17992;DHT22;9121;50.926;5.340;2022-11-21T02:28:40;7.10;99.90
17992;DHT22;9121;50.926;5.340;2022-11-21T02:31:07;7.10;99.90
17992;DHT22;9121;50.926;5.340;2022-11-21T02:33:34;7.10;99.90
17992;DHT22;9121;50.926;5.340;2022-11-21T02:36:01;7.10;99.90
17992;DHT22;9121;50.926;5.340;2022-11-21T02:38:30;7.00;99.90
17992;DHT22;9121;50.926;5.340;2022-11-21T02:41:03;7.00;99.90
17992;DHT22;9121;50.926;5.340;2022-11-21T02:43:36;7.00;99.90
17992;DHT22;9121;50.926;5.340;2022-11-21T02:46:05;7.00;99.90
17992;DHT22;9121;50.926;5.340;2022-11-21T02:48:32;7.00;99.90
17992;DHT22;9121;50.926;5.340;2022-11-21T02:50:59;7.10;99.90
17992;DHT22;9121;50.926;5.340;2022-11-21T02:53:26;7.00;99.90
17992;DHT22;9121;50.926;5.340;2022-11-21T02:55:53;7.00;99.90
17992;DHT22;9121;50.926;5.340;2022-11-21T02:58:20;7.00;99.90
17992;DHT22;9121;50.926;5.340;2022-11-21T03:00:48;7.00;99.90
17992;DHT22;9121;50.926;5.340;2022-11-21T03:03:15;7.00;99.90
17992;DHT22;9121;50.926;5.340;2022-11-21T03:05:42;7.00;99.90
17992;DHT22;9121;50.926;5.340;2022-11-21T03:08:09;7.00;99.90
17992;DHT22;9121;50.926;5.340;2022-11-21T03:10:36;7.00;99.90
17992;DHT22;9121;50.926;5.340;2022-11-21T03:13:03;7.00;99.90
17992;DHT22;9121;50.926;5.340;2022-11-21T03:15:32;6.90;99.90
17992;DHT22;9121;50.926;5.340;2022-11-21T03:18:01;7.00;99.90
17992;DHT22;9121;50.926;5.340;2022-11-21T03:20:28;7.00;99.90
17992;DHT22;9121;50.926;5.340;2022-11-21T03:22:55;7.00;99.90
17992;DHT22;9121;50.926;5.340;2022-11-21T03:25:22;7.10;99.90
17992;DHT22;9121;50.926;5.340;2022-11-21T03:27:50;7.00;99.90
17992;DHT22;9121;50.926;5.340;2022-11-21T03:30:18;7.00;99.90
17992;DHT22;9121;50.926;5.340;2022-11-21T03:32:45;7.00;99.90
17992;DHT22;9121;50.926;5.340;2022-11-21T03:35:14;7.00;99.90
17992;DHT22;9121;50.926;5.340;2022-11-21T03:37:41;7.00;99.90
17992;DHT22;9121;50.926;5.340;2022-11-21T03:40:09;7.00;99.90
17992;DHT22;9121;50.926;5.340;2022-11-21T03:42:36;7.00;99.90
17992;DHT22;9121;50.926;5.340;2022-11-21T03:45:03;7.00;99.90
17992;DHT22;9121;50.926;5.340;2022-11-21T03:47:31;6.90;99.90
17992;DHT22;9121;50.926;5.340;2022-11-21T03:49:58;7.00;99.90
17992;DHT22;9121;50.926;5.340;2022-11-21T03:52:26;7.00;99.90
17992;DHT22;9121;50.926;5.340;2022-11-21T03:54:53;7.00;99.90
17992;DHT22;9121;50.926;5.340;2022-11-21T03:57:20;7.00;99.90
17992;DHT22;9121;50.926;5.340;2022-11-21T03:59:47;7.00;99.90
17992;DHT22;9121;50.926;5.340;2022-11-21T04:02:14;7.00;99.90
17992;DHT22;9121;50.926;5.340;2022-11-21T04:04:41;7.10;99.90
17992;DHT22;9121;50.926;5.340;2022-11-21T04:07:07;7.20;99.90
17992;DHT22;9121;50.926;5.340;2022-11-21T04:09:36;7.20;99.90
17992;DHT22;9121;50.926;5.340;2022-11-21T04:12:03;7.20;99.90
17992;DHT22;9121;50.926;5.340;2022-11-21T04:14:30;7.30;99.90
17992;DHT22;9121;50.926;5.340;2022-11-21T04:16:57;7.30;99.90
17992;DHT22;9121;50.926;5.340;2022-11-21T04:19:24;7.30;99.90
17992;DHT22;9121;50.926;5.340;2022-11-21T04:21:51;7.20;99.90
17992;DHT22;9121;50.926;5.340;2022-11-21T04:24:18;7.30;99.90
17992;DHT22;9121;50.926;5.340;2022-11-21T04:26:46;7.20;99.90
17992;DHT22;9121;50.926;5.340;2022-11-21T04:29:13;7.20;99.90
17992;DHT22;9121;50.926;5.340;2022-11-21T04:31:40;7.20;99.90
17992;DHT22;9121;50.926;5.340;2022-11-21T04:34:07;7.20;99.90
17992;DHT22;9121;50.926;5.340;2022-11-21T04:36:34;7.20;99.90
17992;DHT22;9121;50.926;5.340;2022-11-21T04:39:01;7.20;99.90
17992;DHT22;9121;50.926;5.340;2022-11-21T04:41:28;7.30;99.90
17992;DHT22;9121;50.926;5.340;2022-11-21T04:43:56;7.20;99.90
17992;DHT22;9121;50.926;5.340;2022-11-21T04:46:23;7.20;99.90
17992;DHT22;9121;50.926;5.340;2022-11-21T04:48:50;7.20;99.90
17992;DHT22;9121;50.926;5.340;2022-11-21T04:51:17;7.20;99.90
17992;DHT22;9121;50.926;5.340;2022-11-21T04:53:44;7.20;99.90
17992;DHT22;9121;50.926;5.340;2022-11-21T04:56:10;7.20;99.90
17992;DHT22;9121;50.926;5.340;2022-11-21T04:58:41;7.20;99.90
17992;DHT22;9121;50.926;5.340;2022-11-21T05:01:09;7.20;99.90
17992;DHT22;9121;50.926;5.340;2022-11-21T05:03:36;7.10;99.90
17992;DHT22;9121;50.926;5.340;2022-11-21T05:06:03;7.10;99.90
17992;DHT22;9121;50.926;5.340;2022-11-21T05:08:30;7.10;99.90
17992;DHT22;9121;50.926;5.340;2022-11-21T05:10:57;7.00;99.90
17992;DHT22;9121;50.926;5.340;2022-11-21T05:13:41;7.10;99.90
17992;DHT22;9121;50.926;5.340;2022-11-21T05:16:09;7.00;99.90
17992;DHT22;9121;50.926;5.340;2022-11-21T05:18:36;7.00;99.90
17992;DHT22;9121;50.926;5.340;2022-11-21T05:21:03;6.90;99.90
17992;DHT22;9121;50.926;5.340;2022-11-21T05:23:30;6.90;99.90
17992;DHT22;9121;50.926;5.340;2022-11-21T05:25:57;6.80;99.90
17992;DHT22;9121;50.926;5.340;2022-11-21T05:28:24;6.90;99.90
17992;DHT22;9121;50.926;5.340;2022-11-21T05:30:51;6.80;99.90
17992;DHT22;9121;50.926;5.340;2022-11-21T05:33:20;6.80;99.90
17992;DHT22;9121;50.926;5.340;2022-11-21T05:35:47;6.80;99.90
17992;DHT22;9121;50.926;5.340;2022-11-21T05:38:14;6.70;99.90
17992;DHT22;9121;50.926;5.340;2022-11-21T05:40:41;6.70;99.90
17992;DHT22;9121;50.926;5.340;2022-11-21T05:43:10;6.60;99.90
17992;DHT22;9121;50.926;5.340;2022-11-21T05:45:54;6.60;99.90
17992;DHT22;9121;50.926;5.340;2022-11-21T05:48:23;6.60;99.90
17992;DHT22;9121;50.926;5.340;2022-11-21T05:50:50;6.60;99.90
17992;DHT22;9121;50.926;5.340;2022-11-21T05:53:17;6.50;99.90
17992;DHT22;9121;50.926;5.340;2022-11-21T05:55:44;6.60;99.90
17992;DHT22;9121;50.926;5.340;2022-11-21T05:58:11;6.60;99.90
17992;DHT22;9121;50.926;5.340;2022-11-21T06:00:38;6.60;99.90
17992;DHT22;9121;50.926;5.340;2022-11-21T06:03:06;6.60;99.90
17992;DHT22;9121;50.926;5.340;2022-11-21T06:05:57;6.70;99.90
17992;DHT22;9121;50.926;5.340;2022-11-21T06:08:24;6.70;99.90
17992;DHT22;9121;50.926;5.340;2022-11-21T06:10:51;6.70;99.90
17992;DHT22;9121;50.926;5.340;2022-11-21T06:13:18;6.70;99.90
17992;DHT22;9121;50.926;5.340;2022-11-21T06:15:50;6.70;99.90
17992;DHT22;9121;50.926;5.340;2022-11-21T06:18:17;6.70;99.90
17992;DHT22;9121;50.926;5.340;2022-11-21T06:20:45;6.80;99.90
17992;DHT22;9121;50.926;5.340;2022-11-21T06:23:13;6.90;99.90
17992;DHT22;9121;50.926;5.340;2022-11-21T06:25:41;7.00;99.90
17992;DHT22;9121;50.926;5.340;2022-11-21T06:28:08;7.00;99.90
17992;DHT22;9121;50.926;5.340;2022-11-21T06:30:35;6.90;99.90
17992;DHT22;9121;50.926;5.340;2022-11-21T06:33:04;6.90;99.90
17992;DHT22;9121;50.926;5.340;2022-11-21T06:35:31;6.90;99.90
17992;DHT22;9121;50.926;5.340;2022-11-21T06:37:58;6.90;99.90
17992;DHT22;9121;50.926;5.340;2022-11-21T06:40:26;6.90;99.90
17992;DHT22;9121;50.926;5.340;2022-11-21T06:42:53;6.90;99.90
17992;DHT22;9121;50.926;5.340;2022-11-21T06:45:21;6.90;99.90
17992;DHT22;9121;50.926;5.340;2022-11-21T06:47:49;6.80;99.90
17992;DHT22;9121;50.926;5.340;2022-11-21T06:50:16;6.70;99.90
17992;DHT22;9121;50.926;5.340;2022-11-21T06:52:42;6.70;99.90
17992;DHT22;9121;50.926;5.340;2022-11-21T06:55:10;6.70;99.90
17992;DHT22;9121;50.926;5.340;2022-11-21T06:57:38;6.70;99.90
17992;DHT22;9121;50.926;5.340;2022-11-21T07:00:06;6.70;99.90
17992;DHT22;9121;50.926;5.340;2022-11-21T07:02:34;6.70;99.90
17992;DHT22;9121;50.926;5.340;2022-11-21T07:05:00;6.70;99.90
17992;DHT22;9121;50.926;5.340;2022-11-21T07:07:27;6.70;99.90
17992;DHT22;9121;50.926;5.340;2022-11-21T07:09:54;6.70;99.90
17992;DHT22;9121;50.926;5.340;2022-11-21T07:12:21;6.70;99.90
17992;DHT22;9121;50.926;5.340;2022-11-21T07:15:04;6.70;99.90
17992;DHT22;9121;50.926;5.340;2022-11-21T07:17:31;6.70;99.90
17992;DHT22;9121;50.926;5.340;2022-11-21T07:19:58;6.70;99.90
17992;DHT22;9121;50.926;5.340;2022-11-21T07:22:25;6.70;99.90
17992;DHT22;9121;50.926;5.340;2022-11-21T07:24:52;6.70;99.90
17992;DHT22;9121;50.926;5.340;2022-11-21T07:27:19;6.60;99.90
17992;DHT22;9121;50.926;5.340;2022-11-21T07:29:46;6.70;99.90
17992;DHT22;9121;50.926;5.340;2022-11-21T07:32:14;6.60;99.90
17992;DHT22;9121;50.926;5.340;2022-11-21T07:34:41;6.50;99.90
17992;DHT22;9121;50.926;5.340;2022-11-21T07:37:08;6.50;99.90
17992;DHT22;9121;50.926;5.340;2022-11-21T07:39:35;6.50;99.90
17992;DHT22;9121;50.926;5.340;2022-11-21T07:42:02;6.40;99.90
17992;DHT22;9121;50.926;5.340;2022-11-21T07:44:29;6.40;99.90
17992;DHT22;9121;50.926;5.340;2022-11-21T07:46:56;6.40;99.90
17992;DHT22;9121;50.926;5.340;2022-11-21T07:49:24;6.50;99.90
17992;DHT22;9121;50.926;5.340;2022-11-21T07:51:51;6.50;99.90
17992;DHT22;9121;50.926;5.340;2022-11-21T07:54:18;6.50;99.90
17992;DHT22;9121;50.926;5.340;2022-11-21T07:56:45;6.50;99.90
17992;DHT22;9121;50.926;5.340;2022-11-21T07:59:12;6.40;99.90
17992;DHT22;9121;50.926;5.340;2022-11-21T08:01:39;6.40;99.90
17992;DHT22;9121;50.926;5.340;2022-11-21T08:04:06;6.50;99.90
17992;DHT22;9121;50.926;5.340;2022-11-21T08:06:35;6.50;99.90
17992;DHT22;9121;50.926;5.340;2022-11-21T08:09:02;6.50;99.90
17992;DHT22;9121;50.926;5.340;2022-11-21T08:11:29;6.60;99.90
17992;DHT22;9121;50.926;5.340;2022-11-21T08:13:57;6.60;99.90
17992;DHT22;9121;50.926;5.340;2022-11-21T08:16:24;6.70;99.90
17992;DHT22;9121;50.926;5.340;2022-11-21T08:18:52;6.70;99.90
17992;DHT22;9121;50.926;5.340;2022-11-21T08:21:19;6.70;99.90
17992;DHT22;9121;50.926;5.340;2022-11-21T08:23:48;6.70;99.90
17992;DHT22;9121;50.926;5.340;2022-11-21T08:26:15;6.70;99.90
17992;DHT22;9121;50.926;5.340;2022-11-21T08:28:43;6.70;99.90
17992;DHT22;9121;50.926;5.340;2022-11-21T08:31:10;6.70;99.90
17992;DHT22;9121;50.926;5.340;2022-11-21T08:33:37;6.70;99.90
17992;DHT22;9121;50.926;5.340;2022-11-21T08:36:05;6.70;99.90
17992;DHT22;9121;50.926;5.340;2022-11-21T08:38:32;6.70;99.90
17992;DHT22;9121;50.926;5.340;2022-11-21T08:41:00;6.70;99.90
17992;DHT22;9121;50.926;5.340;2022-11-21T08:43:44;6.80;99.90
17992;DHT22;9121;50.926;5.340;2022-11-21T08:46:11;6.80;99.90
17992;DHT22;9121;50.926;5.340;2022-11-21T08:48:38;6.90;99.90
17992;DHT22;9121;50.926;5.340;2022-11-21T08:51:05;6.90;99.90
17992;DHT22;9121;50.926;5.340;2022-11-21T08:53:32;7.00;99.90
17992;DHT22;9121;50.926;5.340;2022-11-21T08:56:01;7.10;99.90
17992;DHT22;9121;50.926;5.340;2022-11-21T08:58:28;7.10;99.90
17992;DHT22;9121;50.926;5.340;2022-11-21T09:00:54;7.20;99.90
17992;DHT22;9121;50.926;5.340;2022-11-21T09:03:21;7.20;99.90
17992;DHT22;9121;50.926;5.340;2022-11-21T09:05:48;7.20;99.90
17992;DHT22;9121;50.926;5.340;2022-11-21T09:08:15;7.40;99.90
17992;DHT22;9121;50.926;5.340;2022-11-21T09:10:42;7.50;99.90
17992;DHT22;9121;50.926;5.340;2022-11-21T09:13:10;7.80;99.90
17992;DHT22;9121;50.926;5.340;2022-11-21T09:15:38;7.90;99.90
17992;DHT22;9121;50.926;5.340;2022-11-21T09:18:22;8.00;99.90
17992;DHT22;9121;50.926;5.340;2022-11-21T09:20:49;8.00;99.90
17992;DHT22;9121;50.926;5.340;2022-11-21T09:23:16;8.00;99.90
17992;DHT22;9121;50.926;5.340;2022-11-21T09:25:43;8.00;99.90
17992;DHT22;9121;50.926;5.340;2022-11-21T09:28:12;8.00;99.90
17992;DHT22;9121;50.926;5.340;2022-11-21T09:30:40;8.10;99.90
17992;DHT22;9121;50.926;5.340;2022-11-21T09:33:09;8.10;99.90
17992;DHT22;9121;50.926;5.340;2022-11-21T09:35:36;8.10;99.90
17992;DHT22;9121;50.926;5.340;2022-11-21T09:38:04;8.10;99.90
17992;DHT22;9121;50.926;5.340;2022-11-21T09:40:32;8.10;99.90
17992;DHT22;9121;50.926;5.340;2022-11-21T09:43:09;8.10;99.90
17992;DHT22;9121;50.926;5.340;2022-11-21T09:45:45;8.10;99.90
17992;DHT22;9121;50.926;5.340;2022-11-21T09:48:18;8.10;99.90
17992;DHT22;9121;50.926;5.340;2022-11-21T09:50:50;8.10;99.90
17992;DHT22;9121;50.926;5.340;2022-11-21T09:53:21;8.10;99.90
17992;DHT22;9121;50.926;5.340;2022-11-21T09:55:51;8.20;99.90
17992;DHT22;9121;50.926;5.340;2022-11-21T09:58:24;8.20;99.90
17992;DHT22;9121;50.926;5.340;2022-11-21T10:00:55;8.20;99.90
17992;DHT22;9121;50.926;5.340;2022-11-21T10:03:26;8.20;99.90
17992;DHT22;9121;50.926;5.340;2022-11-21T10:05:58;8.20;99.90
17992;DHT22;9121;50.926;5.340;2022-11-21T10:08:33;8.20;99.90
17992;DHT22;9121;50.926;5.340;2022-11-21T10:11:10;8.20;99.90
17992;DHT22;9121;50.926;5.340;2022-11-21T10:13:50;8.20;99.90
17992;DHT22;9121;50.926;5.340;2022-11-21T10:16:28;8.20;99.90
17992;DHT22;9121;50.926;5.340;2022-11-21T10:19:21;8.20;99.90
17992;DHT22;9121;50.926;5.340;2022-11-21T10:22:12;8.20;99.90
17992;DHT22;9121;50.926;5.340;2022-11-21T10:24:51;8.20;99.90
17992;DHT22;9121;50.926;5.340;2022-11-21T10:27:28;8.20;99.90
17992;DHT22;9121;50.926;5.340;2022-11-21T10:30:00;8.20;99.90
17992;DHT22;9121;50.926;5.340;2022-11-21T10:32:33;8.20;99.90
17992;DHT22;9121;50.926;5.340;2022-11-21T10:35:13;8.10;99.90
17992;DHT22;9121;50.926;5.340;2022-11-21T10:37:44;8.20;99.90
17992;DHT22;9121;50.926;5.340;2022-11-21T10:40:29;8.20;99.90
17992;DHT22;9121;50.926;5.340;2022-11-21T10:43:00;8.30;99.90
17992;DHT22;9121;50.926;5.340;2022-11-21T10:45:51;8.30;99.90
17992;DHT22;9121;50.926;5.340;2022-11-21T10:48:19;8.40;99.90
17992;DHT22;9121;50.926;5.340;2022-11-21T10:51:02;8.50;99.90
17992;DHT22;9121;50.926;5.340;2022-11-21T10:53:30;8.50;99.90
17992;DHT22;9121;50.926;5.340;2022-11-21T10:56:17;8.60;99.90
17992;DHT22;9121;50.926;5.340;2022-11-21T10:58:46;8.70;99.90
17992;DHT22;9121;50.926;5.340;2022-11-21T11:01:22;8.90;99.90
17992;DHT22;9121;50.926;5.340;2022-11-21T11:04:21;9.00;99.90
17992;DHT22;9121;50.926;5.340;2022-11-21T11:06:48;9.10;99.90
17992;DHT22;9121;50.926;5.340;2022-11-21T11:09:23;9.10;99.90
17992;DHT22;9121;50.926;5.340;2022-11-21T11:11:53;9.10;99.90
17992;DHT22;9121;50.926;5.340;2022-11-21T11:14:30;9.10;99.90
17992;DHT22;9121;50.926;5.340;2022-11-21T11:16:57;9.20;99.90
17992;DHT22;9121;50.926;5.340;2022-11-21T11:19:28;9.20;99.90
17992;DHT22;9121;50.926;5.340;2022-11-21T11:21:55;9.10;99.90
17992;DHT22;9121;50.926;5.340;2022-11-21T11:24:24;9.00;99.90
17992;DHT22;9121;50.926;5.340;2022-11-21T11:26:57;8.90;99.90
17992;DHT22;9121;50.926;5.340;2022-11-21T11:29:25;9.00;99.90
17992;DHT22;9121;50.926;5.340;2022-11-21T11:31:55;9.10;99.90
17992;DHT22;9121;50.926;5.340;2022-11-21T11:34:25;9.10;99.90
17992;DHT22;9121;50.926;5.340;2022-11-21T11:37:00;9.20;99.90
17992;DHT22;9121;50.926;5.340;2022-11-21T11:39:36;9.30;99.90
17992;DHT22;9121;50.926;5.340;2022-11-21T11:42:34;9.30;99.90
17992;DHT22;9121;50.926;5.340;2022-11-21T11:45:29;9.30;99.90
17992;DHT22;9121;50.926;5.340;2022-11-21T11:48:18;9.30;99.90
17992;DHT22;9121;50.926;5.340;2022-11-21T11:50:48;9.40;99.90
17992;DHT22;9121;50.926;5.340;2022-11-21T11:53:19;9.40;99.90
17992;DHT22;9121;50.926;5.340;2022-11-21T11:55:50;9.40;99.90
17992;DHT22;9121;50.926;5.340;2022-11-21T11:58:24;9.40;99.90
17992;DHT22;9121;50.926;5.340;2022-11-21T12:00:59;9.40;99.90
17992;DHT22;9121;50.926;5.340;2022-11-21T12:03:33;9.40;99.90
17992;DHT22;9121;50.926;5.340;2022-11-21T12:06:04;9.50;99.90
17992;DHT22;9121;50.926;5.340;2022-11-21T12:08:41;9.50;99.90
17992;DHT22;9121;50.926;5.340;2022-11-21T12:11:18;9.50;99.90
17992;DHT22;9121;50.926;5.340;2022-11-21T12:14:12;9.40;99.90
17992;DHT22;9121;50.926;5.340;2022-11-21T12:17:04;9.50;99.90
17992;DHT22;9121;50.926;5.340;2022-11-21T12:19:33;9.50;99.90
17992;DHT22;9121;50.926;5.340;2022-11-21T12:22:01;9.50;99.90
17992;DHT22;9121;50.926;5.340;2022-11-21T12:24:32;9.50;99.90
17992;DHT22;9121;50.926;5.340;2022-11-21T12:27:04;9.40;99.90
17992;DHT22;9121;50.926;5.340;2022-11-21T12:29:46;9.50;99.90
17992;DHT22;9121;50.926;5.340;2022-11-21T12:32:31;9.50;99.90
17992;DHT22;9121;50.926;5.340;2022-11-21T12:35:17;9.50;99.90
17992;DHT22;9121;50.926;5.340;2022-11-21T12:38:00;9.50;99.90
17992;DHT22;9121;50.926;5.340;2022-11-21T12:40:45;9.50;99.90
17992;DHT22;9121;50.926;5.340;2022-11-21T12:43:23;9.60;99.90
17992;DHT22;9121;50.926;5.340;2022-11-21T12:45:59;9.60;99.90
17992;DHT22;9121;50.926;5.340;2022-11-21T12:48:39;9.50;99.90
17992;DHT22;9121;50.926;5.340;2022-11-21T12:51:39;9.50;99.90
17992;DHT22;9121;50.926;5.340;2022-11-21T12:57:15;9.80;99.90
17992;DHT22;9121;50.926;5.340;2022-11-21T12:59:55;9.90;99.90
17992;DHT22;9121;50.926;5.340;2022-11-21T13:02:31;9.90;99.90
17992;DHT22;9121;50.926;5.340;2022-11-21T13:05:02;10.00;99.90
17992;DHT22;9121;50.926;5.340;2022-11-21T13:07:31;10.00;99.90
17992;DHT22;9121;50.926;5.340;2022-11-21T13:10:00;10.10;99.90
17992;DHT22;9121;50.926;5.340;2022-11-21T13:12:36;10.10;99.90
17992;DHT22;9121;50.926;5.340;2022-11-21T13:15:12;10.00;99.90
17992;DHT22;9121;50.926;5.340;2022-11-21T13:17:46;10.10;99.90
17992;DHT22;9121;50.926;5.340;2022-11-21T13:20:20;10.00;99.90
17992;DHT22;9121;50.926;5.340;2022-11-21T13:22:54;10.00;99.90
17992;DHT22;9121;50.926;5.340;2022-11-21T13:28:35;10.00;99.90
17992;DHT22;9121;50.926;5.340;2022-11-21T13:33:50;9.90;99.90
17992;DHT22;9121;50.926;5.340;2022-11-21T13:36:39;9.90;99.90
17992;DHT22;9121;50.926;5.340;2022-11-21T13:39:32;9.90;99.90
17992;DHT22;9121;50.926;5.340;2022-11-21T13:42:02;10.00;99.90
17992;DHT22;9121;50.926;5.340;2022-11-21T13:44:48;9.90;99.90
17992;DHT22;9121;50.926;5.340;2022-11-21T13:48:07;10.00;99.90
17992;DHT22;9121;50.926;5.340;2022-11-21T13:51:02;10.00;99.90
17992;DHT22;9121;50.926;5.340;2022-11-21T13:56:34;10.10;99.90
17992;DHT22;9121;50.926;5.340;2022-11-21T13:59:16;10.10;99.90
17992;DHT22;9121;50.926;5.340;2022-11-21T14:02:04;10.10;99.90
17992;DHT22;9121;50.926;5.340;2022-11-21T14:04:57;10.10;99.90
17992;DHT22;9121;50.926;5.340;2022-11-21T14:07:28;10.10;99.90
17992;DHT22;9121;50.926;5.340;2022-11-21T14:09:58;10.10;99.90
17992;DHT22;9121;50.926;5.340;2022-11-21T14:12:28;10.00;99.90
17992;DHT22;9121;50.926;5.340;2022-11-21T14:15:13;10.00;99.90
17992;DHT22;9121;50.926;5.340;2022-11-21T14:17:44;9.90;99.90
17992;DHT22;9121;50.926;5.340;2022-11-21T14:20:18;9.90;99.90
17992;DHT22;9121;50.926;5.340;2022-11-21T14:22:53;9.90;99.90
17992;DHT22;9121;50.926;5.340;2022-11-21T14:25:23;9.90;99.90
17992;DHT22;9121;50.926;5.340;2022-11-21T14:27:53;9.90;99.90
17992;DHT22;9121;50.926;5.340;2022-11-21T14:30:30;10.00;99.90
17992;DHT22;9121;50.926;5.340;2022-11-21T14:33:26;10.00;99.90
17992;DHT22;9121;50.926;5.340;2022-11-21T14:35:56;9.90;99.90
17992;DHT22;9121;50.926;5.340;2022-11-21T14:38:24;9.90;99.90
17992;DHT22;9121;50.926;5.340;2022-11-21T14:41:10;9.80;99.90
17992;DHT22;9121;50.926;5.340;2022-11-21T14:43:42;9.80;99.90
17992;DHT22;9121;50.926;5.340;2022-11-21T14:46:13;9.80;99.90
17992;DHT22;9121;50.926;5.340;2022-11-21T14:48:42;9.80;99.90
17992;DHT22;9121;50.926;5.340;2022-11-21T14:51:10;9.80;99.90
17992;DHT22;9121;50.926;5.340;2022-11-21T14:53:41;9.80;99.90
17992;DHT22;9121;50.926;5.340;2022-11-21T14:56:10;9.80;99.90
17992;DHT22;9121;50.926;5.340;2022-11-21T14:58:39;9.70;99.90
17992;DHT22;9121;50.926;5.340;2022-11-21T15:01:17;9.70;99.90
17992;DHT22;9121;50.926;5.340;2022-11-21T15:03:55;9.80;99.90
17992;DHT22;9121;50.926;5.340;2022-11-21T15:06:22;9.60;99.90
17992;DHT22;9121;50.926;5.340;2022-11-21T15:08:52;9.50;99.90
17992;DHT22;9121;50.926;5.340;2022-11-21T15:11:22;9.40;99.90
17992;DHT22;9121;50.926;5.340;2022-11-21T15:13:53;9.30;99.90
17992;DHT22;9121;50.926;5.340;2022-11-21T15:16:21;9.40;99.90
17992;DHT22;9121;50.926;5.340;2022-11-21T15:18:49;9.50;99.90
17992;DHT22;9121;50.926;5.340;2022-11-21T15:21:18;9.50;99.90
17992;DHT22;9121;50.926;5.340;2022-11-21T15:23:45;9.40;99.90
17992;DHT22;9121;50.926;5.340;2022-11-21T15:26:27;9.40;99.90
17992;DHT22;9121;50.926;5.340;2022-11-21T15:28:58;9.30;99.90
17992;DHT22;9121;50.926;5.340;2022-11-21T15:31:26;9.40;99.90
17992;DHT22;9121;50.926;5.340;2022-11-21T15:33:55;9.30;99.90
17992;DHT22;9121;50.926;5.340;2022-11-21T15:36:24;9.30;99.90
17992;DHT22;9121;50.926;5.340;2022-11-21T15:38:54;9.20;99.90
17992;DHT22;9121;50.926;5.340;2022-11-21T15:41:28;9.10;99.90
17992;DHT22;9121;50.926;5.340;2022-11-21T15:44:17;9.20;99.90
17992;DHT22;9121;50.926;5.340;2022-11-21T15:46:45;9.30;99.90
17992;DHT22;9121;50.926;5.340;2022-11-21T15:49:13;9.30;99.90
17992;DHT22;9121;50.926;5.340;2022-11-21T15:51:42;9.40;99.90
17992;DHT22;9121;50.926;5.340;2022-11-21T15:54:11;9.30;99.90
17992;DHT22;9121;50.926;5.340;2022-11-21T15:56:38;9.30;99.90
17992;DHT22;9121;50.926;5.340;2022-11-21T15:59:06;9.30;99.90
17992;DHT22;9121;50.926;5.340;2022-11-21T16:01:33;9.30;99.90
17992;DHT22;9121;50.926;5.340;2022-11-21T16:04:01;9.30;99.90
17992;DHT22;9121;50.926;5.340;2022-11-21T16:06:29;9.30;99.90
17992;DHT22;9121;50.926;5.340;2022-11-21T16:08:57;9.30;99.90
17992;DHT22;9121;50.926;5.340;2022-11-21T16:11:27;9.30;99.90
17992;DHT22;9121;50.926;5.340;2022-11-21T16:13:55;9.20;99.90
17992;DHT22;9121;50.926;5.340;2022-11-21T16:16:25;9.20;99.90
17992;DHT22;9121;50.926;5.340;2022-11-21T16:18:52;9.20;99.90
17992;DHT22;9121;50.926;5.340;2022-11-21T16:21:19;9.20;99.90
17992;DHT22;9121;50.926;5.340;2022-11-21T16:23:46;9.10;99.90
17992;DHT22;9121;50.926;5.340;2022-11-21T16:26:14;9.10;99.90
17992;DHT22;9121;50.926;5.340;2022-11-21T16:28:42;9.10;99.90
17992;DHT22;9121;50.926;5.340;2022-11-21T16:31:17;9.20;99.90
17992;DHT22;9121;50.926;5.340;2022-11-21T16:33:44;9.10;99.90